Campville, New York
Current Conditions -  °F | °C
As of 9:53 AM on Wednesday 26 Nov 2014 (Local Time) from KBGM Reporting Station
Overcast Overcast  
Wind Chill: 24°   Ceiling: 4200
Heat Index: 31°   Visibility: 10mi
Dew Point: 23°   Wind: 7mph
Humidity: 72%   Direction: 50°NE
Pressure: 30.08"   Gusts: NA
Location:  42.1332°N, 76.0798°W
Report Text: KBGM 261453Z 05006KT 10SM OVC042 M01/M05 A3008 RMK AO2 SLP202 T10061050 58017
Loading
Personal Weather Stations






























Interactive Weather Map New forecast layout! Learn more

10-Day Weather Forecast

Advertisements
Track Severe Weather on mobile